Jbu Maas — 3EQY6 — position and weather

sailwx.info

Track history (hours):
 
Tides and Currents Weather Stations Pressure Air Temp Water Temp Dewpoint Dewpoint Depression Visibility Wind Speed Wind Dir Waves Ship Positions

Jbu Maas

Last reported at 2014-Aug-13 00:33 UTC. Time now 2014-Sep-02 23:45 UTC.
Position N 22°29' E 119°52'.
Warning: this ship's position is 20 days out of date.

Length 126 m; draft 6.1 m.

Type: Tanker. MMSI: 372492000.

Date/timePositionNaut miles runAvg speedWind from/ knotsBaromVisibWave heightAir tempDewpointWater temp
2014-Aug-13 00:33N 22°29' E 119°52'1010.4
2014-Aug-12 23:33N 22°38' E 119°57'1212.2
2014-Aug-12 22:33N 22°51' E 119°57'51312.1
2014-Aug-11 04:12N 30°58' E 122°54'6211.0
2014-Aug-10 22:30N 31°17' E 121°45'1111.9
2014-Aug-10 21:33N 31°23' E 121°34'9 9.0
2014-Aug-10 20:33N 31°29' E 121°26'1211.3
2014-Aug-10 19:27N 31°38' E 121°15'1212.7
2014-Aug-10 18:31N 31°45' E 121°05'11 9.2
2014-Aug-10 17:22N 31°51' E 120°54'910.8
2014-Aug-10 16:32N 31°59' E 120°50'8 8.4
2014-Aug-10 15:33N 31°60' E 120°40'1010.0
2014-Aug-10 14:33N 32°04' E 120°30'1010.2
2014-Aug-10 13:33N 31°58' E 120°20'10 9.6
2014-Aug-10 12:33N 31°56' E 120°09'1313.2
2014-Aug-10 11:33N 32°03' E 119°56'6 0.1
2014-Aug-08 19:17N 32°09' E 119°54'2 0.4
2014-Aug-08 14:31N 32°07' E 119°55'1111.1
2014-Aug-08 13:33N 31°58' E 120°01'1010.5
2014-Aug-08 12:33N 31°56' E 120°13'1010.0
2014-Aug-08 11:33N 31°58' E 120°25'6 6.1
2014-Aug-08 10:33N 32°02' E 120°31'1211.7
2014-Aug-08 09:33N 32°01' E 120°45'1010.4
2014-Aug-08 08:33N 31°53' E 120°53'2511.6
2014-Aug-08 06:22N 31°37' E 121°16'1112.6
2014-Aug-08 05:31N 31°30' E 121°25'9 9.5
2014-Aug-08 04:33N 31°24' E 121°34'1110.3
2014-Aug-08 03:32N 31°19' E 121°45'  
2014-Aug-05 23:29N 22°40' E 119°56'  
Track history (hours):
 
Tides and Currents Weather Stations Pressure Air Temp Water Temp Dewpoint Dewpoint Depression Visibility Wind Speed Wind Dir Waves Ship Positions

Jbu Maas

Last reported at 2014-Aug-13 00:33 UTC. Time now 2014-Sep-02 23:45 UTC.
Position N 22°29' E 119°52'.
Warning: this ship's position is 20 days out of date.

Length 126 m; draft 6.1 m.

Type: Tanker. MMSI: 372492000.

Date/timePositionNaut miles runAvg speedWind from/ knotsBaromVisibWave heightAir tempDewpointWater temp
2014-Aug-13 00:33N 22°29' E 119°52'1010.4
2014-Aug-12 23:33N 22°38' E 119°57'1212.2
2014-Aug-12 22:33N 22°51' E 119°57'51312.1
2014-Aug-11 04:12N 30°58' E 122°54'6211.0
2014-Aug-10 22:30N 31°17' E 121°45'1111.9
2014-Aug-10 21:33N 31°23' E 121°34'9 9.0
2014-Aug-10 20:33N 31°29' E 121°26'1211.3
2014-Aug-10 19:27N 31°38' E 121°15'1212.7
2014-Aug-10 18:31N 31°45' E 121°05'11 9.2
2014-Aug-10 17:22N 31°51' E 120°54'910.8
2014-Aug-10 16:32N 31°59' E 120°50'8 8.4
2014-Aug-10 15:33N 31°60' E 120°40'1010.0
2014-Aug-10 14:33N 32°04' E 120°30'1010.2
2014-Aug-10 13:33N 31°58' E 120°20'10 9.6
2014-Aug-10 12:33N 31°56' E 120°09'1313.2
2014-Aug-10 11:33N 32°03' E 119°56'6 0.1
2014-Aug-08 19:17N 32°09' E 119°54'2 0.4
2014-Aug-08 14:31N 32°07' E 119°55'1111.1
2014-Aug-08 13:33N 31°58' E 120°01'1010.5
2014-Aug-08 12:33N 31°56' E 120°13'1010.0
2014-Aug-08 11:33N 31°58' E 120°25'6 6.1
2014-Aug-08 10:33N 32°02' E 120°31'1211.7
2014-Aug-08 09:33N 32°01' E 120°45'1010.4
2014-Aug-08 08:33N 31°53' E 120°53'2511.6
2014-Aug-08 06:22N 31°37' E 121°16'1112.6
2014-Aug-08 05:31N 31°30' E 121°25'9 9.5
2014-Aug-08 04:33N 31°24' E 121°34'1110.3
2014-Aug-08 03:32N 31°19' E 121°45'  
2014-Aug-05 23:29N 22°40' E 119°56'  

Dump ship's entire track history